createdAt,value
2023-03-22T01:11:58.725Z,83.64
2023-03-22T01:14:26.270Z,83.81
2023-03-22T01:16:58.115Z,83.81
2023-03-22T01:19:24.989Z,83.84
2023-03-22T01:21:51.651Z,84.01
2023-03-22T01:24:18.269Z,84.24
2023-03-22T01:26:44.995Z,84.19
2023-03-22T01:29:11.894Z,84.42
2023-03-22T01:31:38.562Z,84.44
2023-03-22T01:34:05.529Z,84.44
2023-03-22T01:36:32.230Z,84.69
2023-03-22T01:38:59.441Z,84.55
2023-03-22T01:41:26.268Z,84.61
2023-03-22T01:44:16.304Z,84.50
2023-03-22T01:46:44.734Z,84.36
2023-03-22T01:49:16.413Z,84.49
2023-03-22T01:51:46.547Z,84.60
2023-03-22T01:54:18.752Z,84.70
2023-03-22T01:56:46.161Z,84.83
2023-03-22T01:59:15.952Z,84.78
2023-03-22T02:01:42.828Z,84.93
2023-03-22T02:04:20.191Z,85.12
2023-03-22T02:06:48.409Z,85.25
2023-03-22T02:09:22.112Z,85.35
2023-03-22T02:12:06.545Z,85.53
2023-03-22T02:14:45.292Z,85.54
2023-03-22T02:17:30.972Z,85.67
2023-03-22T02:20:38.886Z,85.72
2023-03-22T02:23:43.417Z,85.89
2023-03-22T02:26:12.960Z,85.95
2023-03-22T02:28:51.288Z,86.01
2023-03-22T02:31:21.053Z,86.12
2023-03-22T02:34:00.020Z,86.15
2023-03-22T02:36:51.938Z,86.25
2023-03-22T02:39:19.127Z,86.44
2023-03-22T02:41:51.452Z,86.63
2023-03-22T02:45:13.649Z,86.77
2023-03-22T02:47:49.985Z,87.04
2023-03-22T02:50:31.040Z,87.07
2023-03-22T02:53:05.708Z,87.28
2023-03-22T02:55:40.771Z,87.33
2023-03-22T02:58:14.318Z,87.40
2023-03-22T03:00:41.948Z,87.61
2023-03-22T03:03:12.777Z,87.63
2023-03-22T03:05:47.130Z,87.70
2023-03-22T03:08:16.874Z,87.73
2023-03-22T03:10:45.383Z,87.75
2023-03-22T03:13:14.631Z,87.68
2023-03-22T03:15:43.999Z,87.79
2023-03-22T03:18:25.630Z,87.98
2023-03-22T03:21:32.762Z,87.97
2023-03-22T03:24:02.463Z,88.39
2023-03-22T03:26:56.289Z,88.58
2023-03-22T03:29:29.987Z,88.71
2023-03-22T03:31:59.866Z,88.84
2023-03-22T03:34:33.024Z,89.08
2023-03-22T03:37:06.223Z,89.22
2023-03-22T03:39:37.239Z,89.20
2023-03-22T03:42:06.853Z,89.13
2023-03-22T03:44:36.229Z,89.16
2023-03-22T03:47:04.041Z,89.24
2023-03-22T03:49:30.751Z,89.25
2023-03-22T03:51:57.497Z,89.40
2023-03-22T03:54:24.341Z,89.37
2023-03-22T03:56:51.023Z,89.58
2023-03-22T03:59:18.803Z,89.50
2023-03-22T04:01:50.488Z,89.60
2023-03-22T04:04:26.879Z,89.57
2023-03-22T04:06:59.581Z,89.70
2023-03-22T04:09:28.532Z,89.80
2023-03-22T04:11:56.348Z,89.89
2023-03-22T04:14:23.717Z,89.90
2023-03-22T04:16:50.877Z,89.82
2023-03-22T04:19:18.211Z,89.89
2023-03-22T04:21:46.000Z,89.81
2023-03-22T04:24:13.174Z,89.86
2023-03-22T04:26:40.520Z,89.99
2023-03-22T04:29:07.155Z,89.96
2023-03-22T04:31:35.837Z,89.94
2023-03-22T04:34:05.836Z,89.94
2023-03-22T04:36:39.543Z,89.98
2023-03-22T04:39:11.521Z,89.87
2023-03-22T04:41:38.507Z,89.85
2023-03-22T04:44:06.189Z,89.81
2023-03-22T04:46:36.029Z,89.94
2023-03-22T04:49:03.523Z,90.03
2023-03-22T04:51:32.199Z,90.01
2023-03-22T04:53:59.257Z,90.20
2023-03-22T04:56:26.308Z,90.15
2023-03-22T04:58:53.342Z,90.33
2023-03-22T05:01:20.248Z,90.41
2023-03-22T05:03:47.708Z,90.39
2023-03-22T05:06:15.025Z,90.35
2023-03-22T05:08:42.087Z,90.13
2023-03-22T05:11:12.602Z,90.13
2023-03-22T05:13:40.164Z,89.79
2023-03-22T05:16:08.400Z,89.92
2023-03-22T05:18:38.053Z,89.83
2023-03-22T05:21:06.848Z,89.93
2023-03-22T05:23:33.570Z,90.05
2023-03-22T05:26:01.825Z,90.17
2023-03-22T05:28:28.786Z,89.90
2023-03-22T05:30:57.188Z,89.86
2023-03-22T05:33:23.874Z,89.78
2023-03-22T05:35:51.428Z,89.92
2023-03-22T05:38:18.499Z,89.88
2023-03-22T05:40:45.631Z,89.75
2023-03-22T05:43:12.775Z,89.65
2023-03-22T05:45:39.664Z,89.53
2023-03-22T05:48:07.030Z,89.52
2023-03-22T05:50:34.424Z,89.41
2023-03-22T05:53:01.530Z,89.37
2023-03-22T05:55:30.571Z,89.08
2023-03-22T05:57:57.200Z,89.05
2023-03-22T06:00:24.355Z,88.65
2023-03-22T06:02:56.638Z,88.63
2023-03-22T06:05:23.700Z,88.58
2023-03-22T06:07:50.420Z,88.20
2023-03-22T06:10:18.274Z,88.25
2023-03-22T06:12:45.413Z,88.01
2023-03-22T06:15:12.591Z,88.02
2023-03-22T06:17:39.378Z,88.00
2023-03-22T06:20:11.063Z,87.81
2023-03-22T06:22:39.100Z,87.78
2023-03-22T06:25:07.083Z,87.57
2023-03-22T06:27:33.718Z,87.49
2023-03-22T06:30:00.510Z,87.35
2023-03-22T06:32:27.446Z,87.12
2023-03-22T06:34:54.973Z,87.02
2023-03-22T06:37:22.207Z,86.81
2023-03-22T06:39:49.266Z,86.79
2023-03-22T06:42:15.849Z,86.44
2023-03-22T06:44:44.010Z,86.33
2023-03-22T06:47:11.796Z,86.06
2023-03-22T06:49:39.082Z,85.69
2023-03-22T06:52:06.203Z,85.67
2023-03-22T06:54:33.024Z,85.26
2023-03-22T06:56:59.572Z,85.09
2023-03-22T06:59:26.359Z,84.77
2023-03-22T07:01:53.103Z,84.77
2023-03-22T07:04:20.280Z,84.84
2023-03-22T07:06:47.318Z,84.70
2023-03-22T07:09:13.994Z,84.19
2023-03-22T07:11:40.601Z,84.19
2023-03-22T07:14:07.277Z,84.15
2023-03-22T07:16:33.942Z,83.83
2023-03-22T07:19:00.927Z,83.96
2023-03-22T07:21:27.637Z,83.93
2023-03-22T07:23:55.269Z,83.52
2023-03-22T07:26:21.836Z,82.73
2023-03-22T07:28:48.482Z,82.09
2023-03-22T07:33:41.753Z,80.37
2023-03-22T07:38:51.271Z,79.36
2023-03-22T07:41:18.445Z,79.58
2023-03-22T07:46:29.383Z,76.99
2023-03-22T07:49:03.871Z,76.31
2023-03-22T07:51:30.730Z,77.43
2023-03-22T07:54:00.000Z,77.32
2023-03-22T07:56:27.499Z,76.90
2023-03-22T07:58:55.309Z,77.62
2023-03-22T08:01:24.498Z,78.17
2023-03-22T08:03:51.053Z,78.50
2023-03-22T08:06:20.007Z,78.48
2023-03-22T08:08:48.883Z,78.17
2023-03-22T08:11:16.867Z,78.03
2023-03-22T08:13:44.794Z,77.18
2023-03-22T08:16:15.174Z,75.59
2023-03-22T08:18:43.632Z,74.15
2023-03-22T08:21:11.153Z,73.88
2023-03-22T08:23:42.031Z,72.53
2023-03-22T08:26:14.045Z,71.85
2023-03-22T08:28:40.525Z,71.41
2023-03-22T08:31:13.938Z,70.78
2023-03-22T08:33:44.744Z,69.82
2023-03-22T08:36:14.451Z,69.29
2023-03-22T08:38:42.612Z,68.57
2023-03-22T08:41:17.780Z,68.18
2023-03-22T08:43:44.357Z,68.18
2023-03-22T08:46:11.002Z,67.63
2023-03-22T08:48:38.565Z,68.11
2023-03-22T08:51:06.632Z,66.31
2023-03-22T08:53:34.803Z,64.00
2023-03-22T08:56:02.492Z,63.71
2023-03-22T08:58:29.000Z,64.36
2023-03-22T09:00:55.796Z,64.38
2023-03-22T09:03:24.220Z,65.38
2023-03-22T09:05:51.061Z,64.99
2023-03-22T09:08:20.578Z,64.62
2023-03-22T09:10:51.452Z,64.65
2023-03-22T09:16:00.829Z,63.53
2023-03-22T09:21:09.658Z,63.15
2023-03-22T09:26:20.936Z,64.11
2023-03-22T09:31:28.138Z,62.25
2023-03-22T09:33:55.900Z,62.02
2023-03-22T09:36:23.631Z,62.09
2023-03-22T09:38:50.155Z,62.03
2023-03-22T09:41:43.225Z,62.27
2023-03-22T09:44:18.873Z,62.11
2023-03-22T09:46:50.752Z,61.65
2023-03-22T09:49:22.618Z,61.95
2023-03-22T09:51:54.636Z,63.06
2023-03-22T09:54:38.404Z,63.53
2023-03-22T09:57:23.115Z,62.93
2023-03-22T10:00:11.419Z,62.60
2023-03-22T10:02:56.589Z,63.20
2023-03-22T10:05:42.235Z,63.52
2023-03-22T10:08:08.982Z,62.24
2023-03-22T10:10:41.884Z,62.23
2023-03-22T10:13:20.888Z,62.76
2023-03-22T10:15:51.185Z,62.59
2023-03-22T10:18:28.070Z,61.13
2023-03-22T10:21:00.636Z,61.09
2023-03-22T10:23:30.263Z,61.39
2023-03-22T10:25:58.693Z,60.95
2023-03-22T10:28:31.879Z,60.05
2023-03-22T10:30:59.192Z,60.26
2023-03-22T10:33:37.677Z,60.38
2023-03-22T10:36:08.157Z,59.86
2023-03-22T10:38:46.183Z,58.70
2023-03-22T10:41:17.272Z,59.21
2023-03-22T10:43:44.800Z,59.76
2023-03-22T10:46:24.358Z,59.73
2023-03-22T10:48:53.992Z,60.56
2023-03-22T10:51:30.425Z,61.21
2023-03-22T10:53:59.479Z,61.90
2023-03-22T10:56:26.250Z,62.28
2023-03-22T10:58:55.645Z,62.16
2023-03-22T11:04:17.471Z,62.57
2023-03-22T11:06:55.656Z,62.70
2023-03-22T11:09:24.644Z,62.48
2023-03-22T11:11:54.374Z,62.81
2023-03-22T11:14:35.643Z,62.99
2023-03-22T11:17:14.161Z,63.11
2023-03-22T11:19:50.693Z,63.01
2023-03-22T11:22:23.252Z,62.52
2023-03-22T11:24:51.629Z,62.75
2023-03-22T11:27:33.958Z,62.27
2023-03-22T11:30:28.084Z,62.32
2023-03-22T11:33:21.870Z,62.44
2023-03-22T11:35:55.833Z,62.23
2023-03-22T11:38:41.208Z,61.69
2023-03-22T11:41:22.566Z,62.02
2023-03-22T11:43:54.333Z,62.01
2023-03-22T11:46:23.329Z,62.19
2023-03-22T11:48:54.212Z,62.15
2023-03-22T11:51:41.143Z,61.75
2023-03-22T11:54:38.023Z,62.59
2023-03-22T11:57:13.023Z,62.84
2023-03-22T12:00:11.869Z,62.50
2023-03-22T12:02:45.848Z,62.94
2023-03-22T12:05:24.136Z,62.69
2023-03-22T12:08:17.471Z,63.21
2023-03-22T12:10:48.541Z,63.32
2023-03-22T12:19:14.920Z,63.27
2023-03-22T12:21:42.986Z,63.25
2023-03-22T12:24:28.298Z,63.62
2023-03-22T12:27:05.354Z,63.70
2023-03-22T12:29:34.100Z,63.83
2023-03-22T12:32:07.194Z,64.23
2023-03-22T12:34:45.317Z,65.12
2023-03-22T12:37:19.660Z,65.51
2023-03-22T12:40:08.449Z,65.23
2023-03-22T12:42:51.139Z,64.46
2023-03-22T12:45:25.001Z,64.52
2023-03-22T12:47:58.070Z,64.24
2023-03-22T12:50:44.759Z,64.71
2023-03-22T12:53:16.544Z,64.98
2023-03-22T12:55:46.466Z,64.78
2023-03-22T13:03:55.189Z,64.78
2023-03-22T13:06:45.504Z,66.44
2023-03-22T13:09:42.316Z,67.51
2023-03-22T13:12:18.007Z,68.60
2023-03-22T13:14:59.490Z,68.94
2023-03-22T13:17:31.571Z,68.14
2023-03-22T13:20:13.667Z,68.54
2023-03-22T13:22:50.555Z,67.53
2023-03-22T13:25:19.010Z,68.04
2023-03-22T13:27:45.636Z,67.76
2023-03-22T13:30:30.107Z,68.58
2023-03-22T13:33:09.862Z,69.45
2023-03-22T13:35:59.200Z,69.82
2023-03-22T13:38:37.544Z,70.30
2023-03-22T13:41:26.736Z,69.47
2023-03-22T13:43:55.838Z,69.21
2023-03-22T13:46:25.515Z,69.40
2023-03-22T13:49:00.325Z,69.17
2023-03-22T13:51:32.070Z,69.20
2023-03-22T13:54:09.315Z,69.28
2023-03-22T13:56:42.122Z,69.29
2023-03-22T13:59:19.053Z,68.95
2023-03-22T14:01:51.707Z,68.49
2023-03-22T14:04:26.448Z,68.04
2023-03-22T14:06:57.472Z,68.16
2023-03-22T14:09:34.798Z,67.71
2023-03-22T14:12:24.672Z,67.56
2023-03-22T14:14:57.066Z,67.67
2023-03-22T14:17:37.958Z,67.62
2023-03-22T14:20:10.689Z,67.59
2023-03-22T14:52:50.012Z,67.57
2023-03-22T14:55:25.198Z,67.68
2023-03-22T14:57:58.652Z,67.60
2023-03-22T15:00:27.778Z,67.69
2023-03-22T15:03:25.133Z,67.72
2023-03-22T15:05:53.360Z,67.81
2023-03-22T15:08:20.173Z,67.77
2023-03-22T15:10:53.995Z,67.88
2023-03-22T15:13:21.447Z,67.77
2023-03-22T15:15:48.816Z,67.90
2023-03-22T15:18:21.613Z,68.11
2023-03-22T15:20:52.150Z,68.12
2023-03-22T15:23:21.947Z,68.48
2023-03-22T15:25:59.339Z,68.25
2023-03-22T15:28:28.694Z,68.26
2023-03-22T15:31:01.989Z,68.19
2023-03-22T15:33:42.275Z,68.39
2023-03-22T15:36:18.438Z,68.58
2023-03-22T15:38:47.241Z,68.52
2023-03-22T15:41:22.380Z,68.59
2023-03-22T15:44:05.149Z,68.58
2023-03-22T15:47:00.308Z,68.64
2023-03-22T15:49:57.156Z,68.85
2023-03-22T15:52:30.206Z,68.57
2023-03-22T15:55:00.044Z,68.46
2023-03-22T15:57:35.744Z,68.38
2023-03-22T16:00:11.629Z,68.60
2023-03-22T16:03:00.858Z,68.18
2023-03-22T16:05:28.777Z,68.27
2023-03-22T16:07:58.722Z,68.06
2023-03-22T16:10:27.272Z,68.05
2023-03-22T16:12:54.014Z,67.91
2023-03-22T16:15:24.576Z,68.08
2023-03-22T16:17:51.587Z,68.09
2023-03-22T16:20:20.365Z,68.23
2023-03-22T16:22:49.564Z,67.90
2023-03-22T16:25:26.253Z,68.35
2023-03-22T16:27:53.036Z,68.28
2023-03-22T16:30:21.144Z,68.27
2023-03-22T16:32:48.288Z,68.41
2023-03-22T16:35:23.768Z,68.49
2023-03-22T16:37:52.095Z,68.23
2023-03-22T16:40:19.947Z,68.33
2023-03-22T16:42:46.896Z,68.49
2023-03-22T16:45:21.252Z,68.70
2023-03-22T16:47:47.974Z,68.42
2023-03-22T16:50:14.826Z,68.58
2023-03-22T16:52:42.199Z,68.49
2023-03-22T16:55:22.056Z,68.67
2023-03-22T16:57:49.826Z,68.70
2023-03-22T17:00:19.451Z,68.79
2023-03-22T17:02:49.390Z,68.78
2023-03-22T17:05:22.301Z,68.83
2023-03-22T17:07:49.912Z,68.62
2023-03-22T17:10:17.597Z,68.53
2023-03-22T17:12:46.370Z,68.63
2023-03-22T17:15:35.795Z,68.63
2023-03-22T17:18:03.755Z,68.85
2023-03-22T17:20:32.662Z,68.70
2023-03-22T17:23:01.519Z,68.78
2023-03-22T17:25:31.850Z,69.01
2023-03-22T17:28:01.336Z,69.23
2023-03-22T17:30:29.884Z,69.07
2023-03-22T17:33:01.587Z,69.05
2023-03-22T17:35:32.935Z,69.21
2023-03-22T17:38:02.534Z,69.28
2023-03-22T17:40:37.790Z,69.23
2023-03-22T17:43:15.542Z,69.34
2023-03-22T17:46:24.733Z,69.36
2023-03-22T17:48:29.095Z,69.52
2023-03-22T17:50:56.478Z,69.74
2023-03-22T17:54:09.469Z,69.58
2023-03-22T17:56:45.032Z,69.73
2023-03-22T17:59:02.162Z,70.00
2023-03-22T18:01:29.869Z,69.69
2023-03-22T18:03:56.761Z,70.10
2023-03-22T18:06:23.556Z,69.93
2023-03-22T18:08:50.828Z,69.77
2023-03-22T18:11:17.477Z,69.83
2023-03-22T18:13:44.518Z,70.02
2023-03-22T18:16:12.086Z,70.23
2023-03-22T18:18:38.906Z,70.41
2023-03-22T18:21:08.066Z,70.50
2023-03-22T18:23:36.043Z,70.68
2023-03-22T18:26:08.156Z,70.76
2023-03-22T18:28:44.236Z,70.68
2023-03-22T18:31:12.293Z,70.78
2023-03-22T18:33:45.159Z,70.96
2023-03-22T18:36:12.983Z,71.05
2023-03-22T18:39:21.956Z,70.89
2023-03-22T18:43:58.855Z,71.27
2023-03-22T18:46:25.806Z,71.20
2023-03-22T18:48:52.510Z,71.27
2023-03-22T18:51:21.767Z,71.44
2023-03-22T18:53:48.783Z,71.65
2023-03-22T19:04:08.048Z,71.61
2023-03-22T19:09:16.097Z,71.82
2023-03-22T19:15:12.114Z,72.00
2023-03-22T19:17:13.355Z,72.08
2023-03-22T19:19:41.278Z,72.00
2023-03-22T19:24:52.874Z,72.00
2023-03-22T19:30:05.566Z,72.10
2023-03-22T19:35:14.480Z,72.06
2023-03-22T19:37:52.598Z,72.12
2023-03-22T19:41:20.280Z,72.18
2023-03-22T19:43:07.283Z,72.04
2023-03-22T19:45:35.304Z,72.10
2023-03-22T19:50:48.805Z,72.34
2023-03-22T19:55:59.927Z,72.49
2023-03-22T19:58:26.646Z,72.83
2023-03-22T20:00:54.086Z,74.06
2023-03-22T20:03:22.431Z,74.62
2023-03-22T20:05:57.863Z,76.71
2023-03-22T20:08:24.663Z,78.85
2023-03-22T20:10:54.117Z,80.21
2023-03-22T20:13:20.960Z,81.15
2023-03-22T20:15:48.164Z,81.65
2023-03-22T20:18:14.858Z,82.24
2023-03-22T20:20:52.592Z,80.92
2023-03-22T20:23:22.729Z,81.45
2023-03-22T20:28:34.250Z,79.89
2023-03-22T20:31:08.087Z,78.93
2023-03-22T20:33:37.959Z,79.48
2023-03-22T20:36:08.279Z,79.59
2023-03-22T20:41:17.936Z,79.26
2023-03-22T20:46:27.585Z,79.35
2023-03-22T20:51:37.944Z,80.16
2023-03-22T20:56:50.800Z,81.07
2023-03-22T20:59:21.339Z,81.62
2023-03-22T21:01:50.668Z,81.37
2023-03-22T21:04:17.509Z,81.73
2023-03-22T21:09:30.728Z,81.56
2023-03-22T21:14:39.383Z,82.80
2023-03-22T21:19:46.766Z,82.86
2023-03-22T21:22:14.435Z,81.68
2023-03-22T21:24:41.393Z,82.10
2023-03-22T21:27:08.287Z,82.20
2023-03-22T21:29:36.015Z,81.22
2023-03-22T21:34:56.865Z,81.02
2023-03-22T21:37:27.432Z,80.74
2023-03-22T21:39:54.862Z,80.47
2023-03-22T21:58:58.368Z,78.16
2023-03-22T22:01:37.531Z,77.90
2023-03-22T22:04:19.850Z,77.52
2023-03-22T22:14:59.647Z,76.49
2023-03-22T22:17:34.762Z,76.19
2023-03-22T22:23:05.409Z,75.75
2023-03-22T22:25:53.188Z,75.95
2023-03-22T22:28:29.838Z,76.05
2023-03-22T22:31:04.494Z,75.43
2023-03-22T22:33:34.794Z,75.71
2023-03-22T22:36:21.811Z,76.13
2023-03-22T22:41:37.877Z,75.54
2023-03-22T22:50:09.088Z,76.06
2023-03-22T22:55:23.356Z,75.76
2023-03-22T23:00:48.420Z,75.48
2023-03-22T23:03:22.745Z,74.76
2023-03-22T23:26:56.593Z,78.66
2023-03-22T23:29:24.909Z,78.60
